WBSB/BWN METAR and TAF weather

Enter ICAO airport designator
Station Type Date Time Source
WBSB METAR 2020/09/20 07:30 UTC NOAA

WBSB 200730Z 32009KT 9999 FEW017 FEW018CB SCT300 32/25 Q1006 NOSIG


Station Type Date Time Source
WBSB Decoded METAR 2020/09/20 07:30 UTC NOAA

Brunei Airport, Brunei (WBSB) 04-56N 114-56E 15M
Sep 20, 2020 - 03:30 AM EDT / 2020.09.20 0730 UTC
Wind: from the NW (320 degrees) at 10 MPH (9 KT):0
Visibility: greater than 7 mile(s):0
Sky conditions: partly cloudy
Weather: Cumulonimbus clouds observed
Temperature: 89 F (32 C)
Heat index: 100.6 F (38.1 C):1
Dew Point: 77 F (25 C)
Relative Humidity: 66%
Pressure (altimeter): 29.71 in. Hg (1006 hPa)
ob: WBSB 200730Z 32009KT 9999 FEW017 FEW018CB SCT300 32/25 Q1006 NOSIG
cycle: 7

Station Type Date Time Source
WBSB TAF 2020/09/20 06:12 UTC NOAA

TAF WBSB 200450Z 2006/2112 34009KT 9999 FEW016 FEW017CB
BECMG 2012/2014 16004KT FEW015

Example: see airport list